Time;durP1;ratioP1;P1;durP2;ratioP2;P2;SDS_P1;SDS_P2;PMS_P1;PMS_P2;Temp;Humidity;BMP_temperature;BMP_pressure;BME280_temperature;BME280_humidity;BME280_pressure;Samples;Min_cycle;Max_cycle;Signal;HPM_P1;HPM_P2
2022/10/03 00:00:17;;;;;;;;;;;;;;;9.61;67.1582;102631.3;;;;-75
2022/10/03 00:05:22;;;;;;;;;;;;;;;9.65;67.06348;102636.3;;;;-73
2022/10/03 00:10:18;;;;;;;;;;;;;;;9.62;67.20508;102638.1;;;;-73
2022/10/03 00:15:14;;;;;;;;;;;;;;;9.6;67.18945;102641.3;;;;-74
2022/10/03 00:20:21;;;;;;;;;;;;;;;9.56;67.21777;102645;;;;-75
2022/10/03 00:25:23;;;;;;;;;;;;;;;9.5;67.17578;102648.7;;;;-77
2022/10/03 00:25:40;;;;;;;3.2;0.7;;;;;;;;;;;;;-77
2022/10/03 00:30:24;;;;;;;;;;;;;;;9.49;67.07422;102654.4;;;;-73
2022/10/03 00:35:19;;;;;;;;;;;;;;;9.44;67.10938;102654.4;;;;-71
2022/10/03 00:40:27;;;;;;;;;;;;;;;9.38;67.19043;102658.8;;;;-71
2022/10/03 00:45:35;;;;;;;;;;;;;;;9.31;67.32324;102661.3;;;;-72
2022/10/03 00:50:24;;;;;;;;;;;;;;;9.25;67.28027;102669.8;;;;-71
2022/10/03 00:55:18;;;;;;;;;;;;;;;9.21;67.58496;102680.1;;;;-71
2022/10/03 00:55:33;;;;;;;3.1;0.8;;;;;;;;;;;;;-71
2022/10/03 01:00:23;;;;;;;;;;;;;;;9.15;67.27441;102690.6;;;;-71
2022/10/03 01:05:16;;;;;;;;;;;;;;;9.12;67.45996;102692.5;;;;-75
2022/10/03 01:10:21;;;;;;;;;;;;;;;9.1;67.36719;102689;;;;-73
2022/10/03 01:15:18;;;;;;;;;;;;;;;9.06;67.42773;102693.3;;;;-74
2022/10/03 01:20:21;;;;;;;;;;;;;;;9.07;67.27441;102692.4;;;;-72
2022/10/03 01:25:15;;;;;;;;;;;;;;;8.99;67.21777;102693.3;;;;-76
2022/10/03 01:25:33;;;;;;;2.5;0.7;;;;;;;;;;;;;-74
2022/10/03 01:35:19;;;;;;;;;;;;;;;8.92;67.33887;102698.6;;;;-74
2022/10/03 01:40:19;;;;;;;;;;;;;;;8.85;67.3291;102704.1;;;;-76
2022/10/03 01:45:18;;;;;;;;;;;;;;;8.82;67.43457;102705.2;;;;-75
2022/10/03 01:50:19;;;;;;;;;;;;;;;8.77;67.47168;102699.4;;;;-75
2022/10/03 01:55:18;;;;;;;;;;;;;;;8.68;67.58984;102705.5;;;;-74
2022/10/03 01:55:38;;;;;;;1.5;0.6;;;;;;;;;;;;;-74
2022/10/03 02:00:14;;;;;;;;;;;;;;;8.61;67.55762;102708.3;;;;-74
2022/10/03 02:05:12;;;;;;;;;;;;;;;8.61;67.64648;102706.7;;;;-74
2022/10/03 02:10:23;;;;;;;;;;;;;;;8.57;67.59375;102709.7;;;;-75
2022/10/03 02:15:18;;;;;;;;;;;;;;;8.51;67.73047;102704.2;;;;-75
2022/10/03 02:20:16;;;;;;;;;;;;;;;8.42;67.6377;102707.1;;;;-74
2022/10/03 02:25:22;;;;;;;;;;;;;;;8.41;67.76953;102708.5;;;;-76
2022/10/03 02:25:39;;;;;;;3.9;0.6;;;;;;;;;;;;;-76
2022/10/03 02:30:21;;;;;;;;;;;;;;;8.35;67.88184;102705.7;;;;-74
2022/10/03 02:35:28;;;;;;;;;;;;;;;8.3;67.89551;102708.8;;;;-73
2022/10/03 02:40:22;;;;;;;;;;;;;;;8.29;67.70605;102707.2;;;;-75
2022/10/03 02:45:30;;;;;;;;;;;;;;;8.21;67.69434;102715.2;;;;-78
2022/10/03 02:50:21;;;;;;;;;;;;;;;8.24;67.76465;102716;;;;-74
2022/10/03 02:55:26;;;;;;;;;;;;;;;8.18;67.79004;102714;;;;-75
2022/10/03 02:55:45;;;;;;;2.1;0.5;;;;;;;;;;;;;-75
2022/10/03 03:00:15;;;;;;;;;;;;;;;8.15;67.81738;102714.8;;;;-74
2022/10/03 03:05:22;;;;;;;;;;;;;;;8.1;67.98633;102720.1;;;;-74
2022/10/03 03:10:34;;;;;;;;;;;;;;;8.15;67.75098;102720.4;;;;-74
2022/10/03 03:15:22;;;;;;;;;;;;;;;8.09;67.79785;102725.1;;;;-74
2022/10/03 03:20:20;;;;;;;;;;;;;;;8.09;67.89551;102735.8;;;;-73
2022/10/03 03:25:16;;;;;;;;;;;;;;;8.05;67.7793;102732.5;;;;-75
2022/10/03 03:25:38;;;;;;;1.8;0.5;;;;;;;;;;;;;-73
2022/10/03 03:30:13;;;;;;;;;;;;;;;8;67.81543;102728.1;;;;-73
2022/10/03 03:35:17;;;;;;;;;;;;;;;7.97;67.85449;102736;;;;-74
2022/10/03 03:40:17;;;;;;;;;;;;;;;7.93;67.98145;102732;;;;-73
2022/10/03 03:45:28;;;;;;;;;;;;;;;7.93;67.71777;102728.6;;;;-73
2022/10/03 03:50:22;;;;;;;;;;;;;;;7.92;67.83496;102722.9;;;;-75
2022/10/03 03:55:27;;;;;;;;;;;;;;;7.91;67.87988;102720.7;;;;-74
2022/10/03 03:55:48;;;;;;;3.3;0.7;;;;;;;;;;;;;-74
2022/10/03 04:00:16;;;;;;;;;;;;;;;7.85;67.91504;102726.4;;;;-74
2022/10/03 04:05:17;;;;;;;;;;;;;;;7.84;67.90137;102721.7;;;;-75
2022/10/03 04:10:17;;;;;;;;;;;;;;;7.87;67.67383;102722;;;;-74
2022/10/03 04:15:23;;;;;;;;;;;;;;;7.96;67.78711;102729.6;;;;-74
2022/10/03 04:20:18;;;;;;;;;;;;;;;8.03;67.60938;102740.2;;;;-75
2022/10/03 04:25:28;;;;;;;;;;;;;;;8.08;67.89551;102734.9;;;;-74
2022/10/03 04:25:53;;;;;;;2.4;0.6;;;;;;;;;;;;;-74
2022/10/03 04:30:14;;;;;;;;;;;;;;;8.19;67.59082;102740.2;;;;-74
2022/10/03 04:35:23;;;;;;;;;;;;;;;8.28;67.82715;102744.3;;;;-74
2022/10/03 04:40:22;;;;;;;;;;;;;;;8.37;67.71875;102748.1;;;;-75
2022/10/03 04:45:21;;;;;;;;;;;;;;;8.47;67.61133;102750.3;;;;-74
2022/10/03 04:50:21;;;;;;;;;;;;;;;8.57;67.30664;102747.9;;;;-74
2022/10/03 04:55:19;;;;;;;;;;;;;;;8.66;67.36621;102753.4;;;;-74
2022/10/03 04:55:34;;;;;;;3.1;0.7;;;;;;;;;;;;;-74
2022/10/03 05:00:19;;;;;;;;;;;;;;;8.71;67.20801;102750.7;;;;-75
2022/10/03 05:05:24;;;;;;;;;;;;;;;8.81;67.05762;102749.7;;;;-74
2022/10/03 05:10:25;;;;;;;;;;;;;;;8.85;67.39551;102751.5;;;;-75
2022/10/03 05:15:18;;;;;;;;;;;;;;;8.93;67.23145;102754.2;;;;-73
2022/10/03 05:20:22;;;;;;;;;;;;;;;8.97;67.2041;102756.6;;;;-74
2022/10/03 05:25:14;;;;;;;;;;;;;;;9.04;67.61328;102754;;;;-74
2022/10/03 05:25:30;;;;;;;2.5;0.6;;;;;;;;;;;;;-73
2022/10/03 05:30:13;;;;;;;;;;;;;;;9.11;67.00488;102755.8;;;;-74
2022/10/03 05:35:19;;;;;;;;;;;;;;;9.21;67.21973;102754.9;;;;-75
2022/10/03 05:40:17;;;;;;;;;;;;;;;9.26;67.42578;102755.4;;;;-74
2022/10/03 05:45:20;;;;;;;;;;;;;;;9.33;67.02539;102757.7;;;;-73
2022/10/03 05:50:19;;;;;;;;;;;;;;;9.4;68.10059;102755.2;;;;-74
2022/10/03 05:55:19;;;;;;;;;;;;;;;9.46;67.56738;102758.4;;;;-78
2022/10/03 05:55:33;;;;;;;2.2;0.7;;;;;;;;;;;;;-78
2022/10/03 06:00:13;;;;;;;;;;;;;;;9.52;67.85254;102758;;;;-77
2022/10/03 06:05:26;;;;;;;;;;;;;;;9.58;67.01074;102761.6;;;;-71
2022/10/03 06:10:36;;;;;;;;;;;;;;;9.63;67.00684;102763.1;;;;-70
2022/10/03 06:15:17;;;;;;;;;;;;;;;9.7;67.06152;102759.2;;;;-78
2022/10/03 06:20:25;;;;;;;;;;;;;;;9.76;67.15918;102759.3;;;;-78
2022/10/03 06:25:31;;;;;;;;;;;;;;;9.83;66.69434;102755;;;;-78
2022/10/03 06:25:53;;;;;;;1.9;0.6;;;;;;;;;;;;;-78
2022/10/03 06:30:24;;;;;;;;;;;;;;;9.9;67.06934;102763.4;;;;-76
2022/10/03 06:35:26;;;;;;;;;;;;;;;9.98;66.68262;102762.6;;;;-79
2022/10/03 06:40:27;;;;;;;;;;;;;;;10.07;67.46289;102765.8;;;;-79
2022/10/03 06:45:30;;;;;;;;;;;;;;;10.16;67.34375;102766;;;;-77
2022/10/03 06:50:51;;;;;;;;;;;;;;;10.36;68.21777;102767.1;;;;-71
2022/10/03 06:53:39;;;;;;;;;;;;;;;10.36;67.05273;102760.6;;;;-70
2022/10/03 06:55:49;;;;;;;3.6;0.8;;;;;;;;;;;;;-71
2022/10/03 06:58:40;;;;;;;;;;;;;;;10.46;67.25684;102761.1;;;;-71
2022/10/03 07:03:48;;;;;;;;;;;;;;;10.67;66.41113;102772.6;;;;-78
2022/10/03 07:08:48;;;;;;;;;;;;;;;10.79;66.92871;102779.8;;;;-77
2022/10/03 07:13:44;;;;;;;;;;;;;;;10.94;66.08398;102791.3;;;;-78
2022/10/03 07:18:43;;;;;;;;;;;;;;;11.05;65.44531;102793.2;;;;-78
2022/10/03 07:23:42;;;;;;;;;;;;;;;11.16;65.50488;102799.7;;;;-80
2022/10/03 07:25:44;;;;;;;3.1;0.9;;;;;;;;;;;;;-78
2022/10/03 07:28:38;;;;;;;;;;;;;;;11.29;64.89258;102807;;;;-76
2022/10/03 07:33:36;;;;;;;;;;;;;;;11.42;64.86621;102807.5;;;;-77
2022/10/03 07:43:39;;;;;;;;;;;;;;;11.7;64.39453;102803.6;;;;-77
2022/10/03 07:48:53;;;;;;;;;;;;;;;11.87;64.20801;102809.4;;;;-78
2022/10/03 07:53:38;;;;;;;;;;;;;;;12.19;63.77441;102814;;;;-77
2022/10/03 07:55:43;;;;;;;3.4;1.2;;;;;;;;;;;;;-76
2022/10/03 07:58:41;;;;;;;;;;;;;;;12.6;63.71191;102818.4;;;;-78
2022/10/03 08:03:38;;;;;;;;;;;;;;;12.92;63.63477;102823.9;;;;-78
2022/10/03 08:08:36;;;;;;;;;;;;;;;13.13;63.2959;102821.4;;;;-78
2022/10/03 08:13:38;;;;;;;;;;;;;;;13.29;63.89063;102822.4;;;;-78
2022/10/03 08:18:45;;;;;;;;;;;;;;;13.45;63.75781;102830.8;;;;-77
2022/10/03 08:23:46;;;;;;;;;;;;;;;13.59;63.74414;102837.5;;;;-78
2022/10/03 08:25:40;;;;;;;6.5;2;;;;;;;;;;;;;-78
2022/10/03 08:28:43;;;;;;;;;;;;;;;13.69;63.62402;102841.4;;;;-77
2022/10/03 08:33:44;;;;;;;;;;;;;;;13.77;63.86914;102845;;;;-78
2022/10/03 08:38:45;;;;;;;;;;;;;;;13.88;65.36523;102850.9;;;;-77
2022/10/03 08:43:41;;;;;;;;;;;;;;;13.94;65.03906;102843.8;;;;-77
2022/10/03 08:48:43;;;;;;;;;;;;;;;14.04;64.4375;102844.8;;;;-79
2022/10/03 08:53:40;;;;;;;;;;;;;;;14.17;65.7207;102845.1;;;;-78
2022/10/03 08:55:44;;;;;;;8.9;2.3;;;;;;;;;;;;;-78
2022/10/03 08:58:44;;;;;;;;;;;;;;;14.21;65.68262;102844.7;;;;-78
2022/10/03 09:03:39;;;;;;;;;;;;;;;14.24;65.94629;102838.6;;;;-76
2022/10/03 09:08:38;;;;;;;;;;;;;;;14.24;65.40723;102841.1;;;;-78
2022/10/03 09:13:38;;;;;;;;;;;;;;;14.26;65.73438;102833;;;;-78
2022/10/03 09:18:41;;;;;;;;;;;;;;;14.27;65.94922;102839.1;;;;-77
2022/10/03 09:23:45;;;;;;;;;;;;;;;14.31;65.58594;102832.2;;;;-78
2022/10/03 09:25:43;;;;;;;7.2;2.4;;;;;;;;;;;;;-77
2022/10/03 09:28:47;;;;;;;;;;;;;;;14.34;66.45313;102832.9;;;;-77
2022/10/03 09:33:39;;;;;;;;;;;;;;;14.39;66.5957;102830.6;;;;-78
2022/10/03 09:38:47;;;;;;;;;;;;;;;14.43;66.24414;102827.2;;;;-79
2022/10/03 09:43:51;;;;;;;;;;;;;;;14.53;66.18066;102829.5;;;;-73
2022/10/03 09:48:35;;;;;;;;;;;;;;;14.62;65.77734;102827.9;;;;-74
2022/10/03 09:53:43;;;;;;;;;;;;;;;14.76;64.56348;102827.9;;;;-74
2022/10/03 09:55:42;;;;;;;5.9;2;;;;;;;;;;;;;-75
2022/10/03 09:58:53;;;;;;;;;;;;;;;14.98;64.02441;102830.4;;;;-75
2022/10/03 10:03:42;;;;;;;;;;;;;;;15.26;63.36719;102825.9;;;;-74
2022/10/03 10:08:39;;;;;;;;;;;;;;;15.53;63.25;102824.9;;;;-73
2022/10/03 10:13:54;;;;;;;;;;;;;;;15.85;62.85449;102823.7;;;;-74
2022/10/03 10:18:39;;;;;;;;;;;;;;;16.03;62.21777;102820.9;;;;-75
2022/10/03 10:23:35;;;;;;;;;;;;;;;16.4;62.6416;102826;;;;-69
2022/10/03 10:25:41;;;;;;;5.9;2.3;;;;;;;;;;;;;-70
2022/10/03 10:28:42;;;;;;;;;;;;;;;16.96;62.55078;102820.4;;;;-70
2022/10/03 10:33:39;;;;;;;;;;;;;;;17.31;60.89355;102819.8;;;;-70
2022/10/03 10:38:42;;;;;;;;;;;;;;;17.38;60.30371;102816.6;;;;-71
2022/10/03 10:43:41;;;;;;;;;;;;;;;17.32;60.84961;102817;;;;-70
2022/10/03 10:48:38;;;;;;;;;;;;;;;17.22;60.74609;102822.3;;;;-70
2022/10/03 10:53:40;;;;;;;;;;;;;;;17.1;61.24902;102819.7;;;;-70
2022/10/03 10:55:55;;;;;;;10.1;2.3;;;;;;;;;;;;;-68
2022/10/03 10:58:39;;;;;;;;;;;;;;;17.02;61.55371;102817.8;;;;-71
2022/10/03 11:03:49;;;;;;;;;;;;;;;16.98;61.52734;102815.6;;;;-70
2022/10/03 11:08:53;;;;;;;;;;;;;;;17.02;61.59961;102811.1;;;;-69
2022/10/03 11:13:40;;;;;;;;;;;;;;;17.23;61.94531;102814.4;;;;-75
2022/10/03 11:18:48;;;;;;;;;;;;;;;17.65;61.86719;102805;;;;-75
2022/10/03 11:23:44;;;;;;;;;;;;;;;18.24;60.75;102800.4;;;;-74
2022/10/03 11:25:52;;;;;;;8;1.8;;;;;;;;;;;;;-75
2022/10/03 11:28:38;;;;;;;;;;;;;;;18.5;59.56055;102804.8;;;;-74
2022/10/03 11:33:44;;;;;;;;;;;;;;;18.55;59.40918;102803.4;;;;-75
2022/10/03 11:38:29;;;;;;;;;;;;;;;18.56;59.44336;102800.7;;;;-74
2022/10/03 11:43:47;;;;;;;;;;;;;;;18.59;58.91602;102798.9;;;;-74
2022/10/03 11:48:40;;;;;;;;;;;;;;;18.62;58.91895;102795.4;;;;-74
2022/10/03 11:53:45;;;;;;;;;;;;;;;18.61;59.20117;102797.3;;;;-74
2022/10/03 11:55:43;;;;;;;5.7;1.6;;;;;;;;;;;;;-74
2022/10/03 11:58:39;;;;;;;;;;;;;;;18.68;59.13184;102798.2;;;;-73
2022/10/03 12:03:29;;;;;;;;;;;;;;;18.82;59.26367;102796.4;;;;-73
2022/10/03 12:13:32;;;;;;;;;;;;;;;19.19;58.42676;102786.1;;;;-74
2022/10/03 12:18:33;;;;;;;;;;;;;;;19.24;58.05859;102780.5;;;;-75
2022/10/03 12:23:34;;;;;;;;;;;;;;;19.24;58.38867;102778.9;;;;-73
2022/10/03 12:25:46;;;;;;;6.2;1.4;;;;;;;;;;;;;-74
2022/10/03 12:28:30;;;;;;;;;;;;;;;19.28;58.40527;102768.5;;;;-74
2022/10/03 12:33:39;;;;;;;;;;;;;;;19.37;58.41602;102763.1;;;;-73
2022/10/03 12:38:36;;;;;;;;;;;;;;;19.4;59;102760.5;;;;-73
2022/10/03 12:43:37;;;;;;;;;;;;;;;19.41;58.70703;102756.9;;;;-74
2022/10/03 12:48:43;;;;;;;;;;;;;;;19.33;58.45605;102762.1;;;;-75
2022/10/03 12:53:31;;;;;;;;;;;;;;;19.34;61.49023;102760;;;;-73
2022/10/03 12:55:50;;;;;;;5.6;1.4;;;;;;;;;;;;;-74
2022/10/03 12:58:32;;;;;;;;;;;;;;;19.41;60.02344;102754.4;;;;-74
2022/10/03 13:03:37;;;;;;;;;;;;;;;19.58;59.73926;102746.6;;;;-75
2022/10/03 13:08:40;;;;;;;;;;;;;;;19.88;61.75781;102750.8;;;;-74
2022/10/03 13:13:34;;;;;;;;;;;;;;;20.1;57.59082;102754.3;;;;-73
2022/10/03 13:18:38;;;;;;;;;;;;;;;20.08;55.83398;102745.9;;;;-73
2022/10/03 13:23:31;;;;;;;;;;;;;;;20.21;56.9668;102748.3;;;;-73
2022/10/03 13:25:52;;;;;;;6.3;1.3;;;;;;;;;;;;;-73
2022/10/03 13:28:33;;;;;;;;;;;;;;;20.31;55.63477;102745.9;;;;-74
2022/10/03 13:33:31;;;;;;;;;;;;;;;20.28;55.27832;102744.1;;;;-74
2022/10/03 13:38:55;;;;;;;;;;;;;;;20.17;55.84473;102749.9;;;;-74
2022/10/03 13:43:35;;;;;;;;;;;;;;;20.13;56.55762;102747;;;;-74
2022/10/03 13:48:30;;;;;;;;;;;;;;;20.15;56.59375;102735.1;;;;-73
2022/10/03 13:53:38;;;;;;;;;;;;;;;20.27;56.51953;102730.2;;;;-74
2022/10/03 13:55:55;;;;;;;6.1;1.2;;;;;;;;;;;;;-74
2022/10/03 13:58:45;;;;;;;;;;;;;;;20.38;55.66699;102729.5;;;;-75
2022/10/03 14:03:34;;;;;;;;;;;;;;;20.3;55.48535;102721.8;;;;-77
2022/10/03 14:08:42;;;;;;;;;;;;;;;20.18;55.83398;102718.1;;;;-75
2022/10/03 14:13:34;;;;;;;;;;;;;;;20.04;56.33105;102714.9;;;;-74
2022/10/03 14:18:48;;;;;;;;;;;;;;;19.96;58.79004;102718.3;;;;-75
2022/10/03 14:23:31;;;;;;;;;;;;;;;19.86;57.3877;102719;;;;-74
2022/10/03 14:25:59;;;;;;;6.4;1.2;;;;;;;;;;;;;-74
2022/10/03 14:28:30;;;;;;;;;;;;;;;19.77;57.58203;102711.2;;;;-75
2022/10/03 14:33:31;;;;;;;;;;;;;;;19.68;58.03711;102705.9;;;;-75
2022/10/03 14:43:36;;;;;;;;;;;;;;;19.55;58.31445;102696.2;;;;-74
2022/10/03 14:48:31;;;;;;;;;;;;;;;19.55;58.65723;102675.9;;;;-74
2022/10/03 14:53:29;;;;;;;;;;;;;;;19.66;58.05664;102672.5;;;;-73
2022/10/03 14:56:05;;;;;;;6.9;1.3;;;;;;;;;;;;;-75
2022/10/03 14:58:31;;;;;;;;;;;;;;;19.69;57.52637;102669;;;;-74
2022/10/03 15:03:40;;;;;;;;;;;;;;;19.6;57.23047;102666.8;;;;-74
2022/10/03 15:08:32;;;;;;;;;;;;;;;19.5;56.55762;102664;;;;-74
2022/10/03 15:13:28;;;;;;;;;;;;;;;19.42;57.50293;102673.4;;;;-76
2022/10/03 15:18:28;;;;;;;;;;;;;;;19.34;57.81055;102670.5;;;;-75
2022/10/03 15:23:32;;;;;;;;;;;;;;;19.26;57.62988;102663.3;;;;-73
2022/10/03 15:26:00;;;;;;;4.9;1.2;;;;;;;;;;;;;-75
2022/10/03 15:28:29;;;;;;;;;;;;;;;19.2;58.58691;102663.6;;;;-75
2022/10/03 15:33:32;;;;;;;;;;;;;;;19.11;58.80273;102666.6;;;;-76
2022/10/03 15:38:29;;;;;;;;;;;;;;;19;59.02637;102661.8;;;;-74
2022/10/03 15:43:37;;;;;;;;;;;;;;;18.93;59.66406;102667.4;;;;-73
2022/10/03 15:48:29;;;;;;;;;;;;;;;18.88;59.66895;102666.4;;;;-78
2022/10/03 15:53:30;;;;;;;;;;;;;;;18.89;59.91992;102653.9;;;;-74
2022/10/03 15:56:06;;;;;;;5.7;1.5;;;;;;;;;;;;;-74
2022/10/03 15:58:32;;;;;;;;;;;;;;;18.87;59.45215;102652.3;;;;-75
2022/10/03 16:03:31;;;;;;;;;;;;;;;18.78;59.84863;102649.1;;;;-74
2022/10/03 16:08:30;;;;;;;;;;;;;;;18.62;60.41699;102644;;;;-75
2022/10/03 16:13:31;;;;;;;;;;;;;;;18.44;61.58203;102635.7;;;;-74
2022/10/03 16:18:41;;;;;;;;;;;;;;;18.26;61.80566;102631.7;;;;-74
2022/10/03 16:23:31;;;;;;;;;;;;;;;18.1;61.89648;102627.1;;;;-76
2022/10/03 16:26:07;;;;;;;4.3;1.3;;;;;;;;;;;;;-74
2022/10/03 16:28:32;;;;;;;;;;;;;;;17.91;61.8584;102634.9;;;;-75
2022/10/03 16:33:31;;;;;;;;;;;;;;;17.75;61.99512;102632.9;;;;-71
2022/10/03 16:38:29;;;;;;;;;;;;;;;17.58;61.8916;102623.1;;;;-75
2022/10/03 16:43:28;;;;;;;;;;;;;;;17.44;62.18945;102622.1;;;;-73
2022/10/03 16:53:28;;;;;;;;;;;;;;;17.16;62.5;102602.5;;;;-74
2022/10/03 16:56:11;;;;;;;4.4;1.3;;;;;;;;;;;;;-75
2022/10/03 16:58:29;;;;;;;;;;;;;;;17.01;62.26367;102596.4;;;;-75
2022/10/03 17:03:29;;;;;;;;;;;;;;;16.87;62.25684;102593.2;;;;-77
2022/10/03 17:08:30;;;;;;;;;;;;;;;16.73;62.17969;102599.2;;;;-75
2022/10/03 17:13:30;;;;;;;;;;;;;;;16.58;62.33984;102608.2;;;;-75
2022/10/03 17:18:31;;;;;;;;;;;;;;;16.42;62.48633;102607;;;;-75
2022/10/03 17:23:30;;;;;;;;;;;;;;;16.27;62.53125;102606.6;;;;-74
2022/10/03 17:26:13;;;;;;;4;1.3;;;;;;;;;;;;;-75
2022/10/03 17:28:33;;;;;;;;;;;;;;;16.08;62.84277;102605.7;;;;-75
2022/10/03 17:33:33;;;;;;;;;;;;;;;15.92;62.87598;102604.9;;;;-76
2022/10/03 17:38:32;;;;;;;;;;;;;;;15.75;62.99902;102606.5;;;;-77
2022/10/03 17:43:34;;;;;;;;;;;;;;;15.63;62.99316;102610.9;;;;-76
2022/10/03 17:48:30;;;;;;;;;;;;;;;15.51;63.00879;102619.9;;;;-75
2022/10/03 17:53:30;;;;;;;;;;;;;;;15.4;62.57715;102618.8;;;;-73
2022/10/03 17:56:14;;;;;;;4.8;1.5;;;;;;;;;;;;;-75
2022/10/03 17:58:30;;;;;;;;;;;;;;;15.23;62.70117;102606.7;;;;-75
2022/10/03 18:03:30;;;;;;;;;;;;;;;15.11;62.98633;102599.9;;;;-75
2022/10/03 18:08:31;;;;;;;;;;;;;;;14.96;62.93164;102589.7;;;;-75
2022/10/03 18:13:30;;;;;;;;;;;;;;;14.87;62.97363;102589.2;;;;-71
2022/10/03 18:18:38;;;;;;;;;;;;;;;14.72;63.29004;102583.9;;;;-72
2022/10/03 18:23:36;;;;;;;;;;;;;;;14.62;63.33203;102576.4;;;;-71
2022/10/03 18:26:23;;;;;;;5.8;1.8;;;;;;;;;;;;;-74
2022/10/03 18:28:29;;;;;;;;;;;;;;;14.56;63.5918;102571.6;;;;-74
2022/10/03 18:33:36;;;;;;;;;;;;;;;14.47;63.41016;102565.3;;;;-72
2022/10/03 18:38:30;;;;;;;;;;;;;;;14.37;63.50781;102573.3;;;;-71
2022/10/03 18:43:31;;;;;;;;;;;;;;;14.31;63.72461;102571.6;;;;-70
2022/10/03 18:48:33;;;;;;;;;;;;;;;14.25;64.0752;102562.2;;;;-70
2022/10/03 18:53:34;;;;;;;;;;;;;;;14.19;64.20117;102561.6;;;;-73
2022/10/03 18:56:19;;;;;;;6.4;2;;;;;;;;;;;;;-71
2022/10/03 18:58:28;;;;;;;;;;;;;;;14.16;64.20703;102560;;;;-70
2022/10/03 19:03:34;;;;;;;;;;;;;;;14.12;64.36914;102563.2;;;;-76
2022/10/03 19:08:30;;;;;;;;;;;;;;;14.06;64.37305;102561.2;;;;-75
2022/10/03 19:13:33;;;;;;;;;;;;;;;14.02;64.48926;102554;;;;-77
2022/10/03 19:18:32;;;;;;;;;;;;;;;13.98;64.34961;102558.1;;;;-75
2022/10/03 19:23:29;;;;;;;;;;;;;;;13.94;64.43262;102551.3;;;;-76
2022/10/03 19:26:23;;;;;;;5.3;2;;;;;;;;;;;;;-75
2022/10/03 19:28:30;;;;;;;;;;;;;;;13.91;64.6748;102548.1;;;;-75
2022/10/03 19:33:29;;;;;;;;;;;;;;;13.84;65.18066;102549.8;;;;-76
2022/10/03 19:38:31;;;;;;;;;;;;;;;13.79;65.22852;102551;;;;-76
2022/10/03 19:43:34;;;;;;;;;;;;;;;13.73;65.29785;102556.3;;;;-74
2022/10/03 19:48:30;;;;;;;;;;;;;;;13.69;65.10156;102565.4;;;;-75
2022/10/03 19:53:27;;;;;;;;;;;;;;;13.63;65.41699;102562.6;;;;-74
2022/10/03 19:56:21;;;;;;;8.7;2.6;;;;;;;;;;;;;-76
2022/10/03 19:58:27;;;;;;;;;;;;;;;13.59;65.78125;102561.3;;;;-73
2022/10/03 20:03:32;;;;;;;;;;;;;;;13.53;65.78418;102563.6;;;;-73
2022/10/03 20:08:34;;;;;;;;;;;;;;;13.51;65.75586;102567;;;;-74
2022/10/03 20:13:27;;;;;;;;;;;;;;;13.45;65.53516;102563.2;;;;-77
2022/10/03 20:18:29;;;;;;;;;;;;;;;13.42;65.55371;102565.6;;;;-74
2022/10/03 20:23:29;;;;;;;;;;;;;;;13.37;65.39063;102563.3;;;;-74
2022/10/03 20:26:25;;;;;;;6.9;2.8;;;;;;;;;;;;;-75
2022/10/03 20:28:32;;;;;;;;;;;;;;;13.35;65.74414;102560.1;;;;-74
2022/10/03 20:33:29;;;;;;;;;;;;;;;13.31;65.60352;102563.2;;;;-78
2022/10/03 20:38:32;;;;;;;;;;;;;;;13.28;65.80176;102561.6;;;;-76
2022/10/03 20:43:41;;;;;;;;;;;;;;;13.25;66.07617;102560.6;;;;-74
2022/10/03 20:48:30;;;;;;;;;;;;;;;13.23;66.14063;102567.8;;;;-77
2022/10/03 20:53:29;;;;;;;;;;;;;;;13.2;66.05762;102561;;;;-75
2022/10/03 20:56:24;;;;;;;5.8;2.6;;;;;;;;;;;;;-75
2022/10/03 20:58:31;;;;;;;;;;;;;;;13.17;66.19922;102557.1;;;;-74
2022/10/03 21:03:30;;;;;;;;;;;;;;;13.13;66.1582;102546.7;;;;-75
2022/10/03 21:08:29;;;;;;;;;;;;;;;13.13;66.50488;102537;;;;-73
2022/10/03 21:13:32;;;;;;;;;;;;;;;13.1;66.21094;102535;;;;-74
2022/10/03 21:18:29;;;;;;;;;;;;;;;13.09;67.125;102531.3;;;;-76
2022/10/03 21:23:28;;;;;;;;;;;;;;;13.08;66.5752;102528.6;;;;-74
2022/10/03 21:26:25;;;;;;;6.2;2.6;;;;;;;;;;;;;-75
2022/10/03 21:28:33;;;;;;;;;;;;;;;13.07;67.13281;102531.5;;;;-74
2022/10/03 21:33:30;;;;;;;;;;;;;;;13.05;66.96191;102526;;;;-74
2022/10/03 21:38:29;;;;;;;;;;;;;;;13.04;67.14063;102514.3;;;;-75
2022/10/03 21:43:35;;;;;;;;;;;;;;;13.01;67.76074;102504.8;;;;-75
2022/10/03 21:48:32;;;;;;;;;;;;;;;13.01;67.0918;102493.3;;;;-75
2022/10/03 21:53:32;;;;;;;;;;;;;;;13;67.10059;102494;;;;-74
2022/10/03 21:56:35;;;;;;;8.2;2.9;;;;;;;;;;;;;-74
2022/10/03 21:58:37;;;;;;;;;;;;;;;13;67.82617;102480;;;;-74
2022/10/03 22:03:30;;;;;;;;;;;;;;;12.99;67.21191;102480.9;;;;-74
2022/10/03 22:08:28;;;;;;;;;;;;;;;12.97;67.2959;102474.5;;;;-75
2022/10/03 22:13:30;;;;;;;;;;;;;;;12.96;67.9873;102465.8;;;;-76
2022/10/03 22:18:31;;;;;;;;;;;;;;;12.97;68.10156;102464.5;;;;-76
2022/10/03 22:23:34;;;;;;;;;;;;;;;12.95;68.29785;102456;;;;-74
2022/10/03 22:26:30;;;;;;;8.8;3;;;;;;;;;;;;;-74
2022/10/03 22:28:32;;;;;;;;;;;;;;;12.93;68.20605;102458.2;;;;-75
2022/10/03 22:33:32;;;;;;;;;;;;;;;12.9;68.48047;102456.3;;;;-75
2022/10/03 22:38:29;;;;;;;;;;;;;;;12.89;67.93262;102462.1;;;;-74
2022/10/03 22:43:28;;;;;;;;;;;;;;;12.88;68.1084;102462.4;;;;-74
2022/10/03 22:48:29;;;;;;;;;;;;;;;12.88;68.06348;102458.5;;;;-74
2022/10/03 22:53:31;;;;;;;;;;;;;;;12.86;67.68262;102452.5;;;;-76
2022/10/03 22:56:42;;;;;;;8.1;3;;;;;;;;;;;;;-75
2022/10/03 22:58:27;;;;;;;;;;;;;;;12.85;67.59082;102450.9;;;;-75
2022/10/03 23:03:29;;;;;;;;;;;;;;;12.86;68.01758;102447.8;;;;-74
2022/10/03 23:08:33;;;;;;;;;;;;;;;12.84;68.04785;102447.3;;;;-75
2022/10/03 23:13:32;;;;;;;;;;;;;;;12.82;67.77539;102442.6;;;;-74
2022/10/03 23:18:51;;;;;;;;;;;;;;;12.8;67.72852;102434.2;;;;-76
2022/10/03 23:23:32;;;;;;;;;;;;;;;12.78;67.84668;102426.2;;;;-74
2022/10/03 23:26:41;;;;;;;8.8;2.8;;;;;;;;;;;;;-75
2022/10/03 23:28:32;;;;;;;;;;;;;;;12.74;68.41211;102422.4;;;;-74
2022/10/03 23:33:47;;;;;;;;;;;;;;;12.73;67.91797;102412.7;;;;-74
2022/10/03 23:38:47;;;;;;;;;;;;;;;12.72;67.9834;102410;;;;-74
2022/10/03 23:43:38;;;;;;;;;;;;;;;12.69;68.49414;102397.5;;;;-75
2022/10/03 23:48:28;;;;;;;;;;;;;;;12.7;68.41602;102388.9;;;;-75
2022/10/03 23:53:32;;;;;;;;;;;;;;;12.67;68.70215;102384.1;;;;-77
2022/10/03 23:56:35;;;;;;;7.9;3.2;;;;;;;;;;;;;-75
2022/10/03 23:58:32;;;;;;;;;;;;;;;12.63;68.7168;102382.5;;;;-73
